createdAt,value
2018-10-09T00:00:12.956Z,0
2018-10-09T00:01:21.031Z,0
2018-10-09T00:02:29.086Z,0
2018-10-09T00:03:37.157Z,0
2018-10-09T00:04:45.210Z,0
2018-10-09T00:05:53.282Z,0
2018-10-09T00:07:01.346Z,0
2018-10-09T00:08:09.418Z,0
2018-10-09T00:09:17.467Z,0
2018-10-09T00:10:25.547Z,0
2018-10-09T00:11:33.615Z,0
2018-10-09T00:12:41.676Z,0
2018-10-09T00:13:49.739Z,0
2018-10-09T00:14:57.810Z,0
2018-10-09T00:16:05.845Z,0
2018-10-09T00:17:13.929Z,0
2018-10-09T00:18:21.991Z,0
2018-10-09T00:19:30.053Z,0
2018-10-09T00:20:38.116Z,0
2018-10-09T00:21:46.193Z,0
2018-10-09T00:22:54.248Z,0
2018-10-09T00:24:02.297Z,0
2018-10-09T00:25:10.381Z,0
2018-10-09T00:26:18.438Z,0
2018-10-09T00:27:26.470Z,0
2018-10-09T00:28:34.572Z,0
2018-10-09T00:29:42.634Z,0
2018-10-09T00:30:50.698Z,0
2018-10-09T00:31:58.774Z,0
2018-10-09T00:33:06.808Z,0
2018-10-09T00:34:14.895Z,0
2018-10-09T00:35:22.972Z,0
2018-10-09T00:36:31.026Z,0
2018-10-09T00:37:39.085Z,0
2018-10-09T00:38:47.174Z,0
2018-10-09T00:39:55.212Z,0
2018-10-09T00:41:03.284Z,0
2018-10-09T00:42:11.348Z,0
2018-10-09T00:43:19.407Z,0
2018-10-09T00:44:27.473Z,0
2018-10-09T00:45:35.534Z,0
2018-10-09T00:46:43.597Z,0
2018-10-09T00:47:51.662Z,0
2018-10-09T00:48:59.742Z,0
2018-10-09T00:50:07.803Z,0
2018-10-09T00:51:15.847Z,0
2018-10-09T00:52:23.918Z,0
2018-10-09T00:53:32.005Z,0
2018-10-09T00:54:40.069Z,0
2018-10-09T00:55:48.126Z,0
2018-10-09T00:56:56.166Z,0
2018-10-09T00:58:04.270Z,0
2018-10-09T00:59:12.330Z,0
2018-10-09T01:00:20.399Z,0
2018-10-09T01:01:28.466Z,0
2018-10-09T01:02:36.514Z,0
2018-10-09T01:03:44.591Z,0
2018-10-09T01:04:52.660Z,0
2018-10-09T01:06:00.720Z,0
2018-10-09T01:07:08.779Z,0
2018-10-09T01:08:16.835Z,0
2018-10-09T01:09:24.916Z,0
2018-10-09T01:10:32.979Z,0
2018-10-09T01:11:41.024Z,0
2018-10-09T01:12:49.101Z,0
2018-10-09T01:13:57.165Z,0
2018-10-09T01:15:05.226Z,0
2018-10-09T01:16:13.286Z,0
2018-10-09T01:17:21.339Z,0
2018-10-09T01:18:29.420Z,0
2018-10-09T01:19:37.483Z,0
2018-10-09T01:20:45.542Z,0
2018-10-09T01:21:53.617Z,0
2018-10-09T01:23:01.679Z,0
2018-10-09T01:24:09.755Z,0
2018-10-09T01:25:17.835Z,0
2018-10-09T01:26:25.847Z,0
2018-10-09T01:27:33.938Z,0
2018-10-09T01:28:41.999Z,0
2018-10-09T01:29:50.061Z,0
2018-10-09T01:30:58.122Z,0
2018-10-09T01:32:06.178Z,0
2018-10-09T01:33:14.255Z,0
2018-10-09T01:34:22.321Z,0
2018-10-09T01:35:30.390Z,0
2018-10-09T01:36:38.458Z,0
2018-10-09T01:37:46.488Z,0
2018-10-09T01:38:54.582Z,0
2018-10-09T01:40:02.657Z,0
2018-10-09T01:41:10.714Z,0
2018-10-09T01:42:18.789Z,0
2018-10-09T01:43:26.819Z,0
2018-10-09T01:44:34.913Z,0
2018-10-09T01:45:42.972Z,0
2018-10-09T01:46:51.082Z,0
2018-10-09T01:47:59.111Z,0
2018-10-09T01:49:07.177Z,0
2018-10-09T01:50:15.222Z,0
2018-10-09T01:51:23.303Z,0
2018-10-09T01:52:31.365Z,0
2018-10-09T01:53:39.418Z,0
2018-10-09T01:54:47.497Z,0
2018-10-09T01:55:55.562Z,0
2018-10-09T01:57:03.633Z,0
2018-10-09T01:58:11.688Z,0
2018-10-09T01:59:19.763Z,0
2018-10-09T02:00:27.822Z,0
2018-10-09T02:01:35.866Z,0
2018-10-09T02:02:43.947Z,0
2018-10-09T02:03:52.015Z,0
2018-10-09T02:05:00.082Z,0
2018-10-09T02:06:08.141Z,0
2018-10-09T02:07:16.176Z,0
2018-10-09T02:08:24.268Z,0
2018-10-09T02:09:32.343Z,0
2018-10-09T02:10:40.400Z,0
2018-10-09T02:11:48.454Z,0
2018-10-09T02:12:56.506Z,0
2018-10-09T02:14:04.586Z,0
2018-10-09T02:15:12.659Z,0
2018-10-09T02:16:20.728Z,0
2018-10-09T02:17:28.790Z,0
2018-10-09T02:18:36.840Z,0
2018-10-09T02:19:44.912Z,0
2018-10-09T02:20:52.974Z,0
2018-10-09T02:22:01.251Z,0
2018-10-09T02:23:09.109Z,0
2018-10-09T02:24:17.175Z,0
2018-10-09T02:25:25.237Z,0
2018-10-09T02:26:33.309Z,0
2018-10-09T02:27:41.365Z,0
2018-10-09T02:28:49.443Z,0
2018-10-09T02:29:57.503Z,0
2018-10-09T02:31:05.562Z,0
2018-10-09T02:32:13.630Z,0
2018-10-09T02:33:21.781Z,0
2018-10-09T02:34:29.758Z,0
2018-10-09T02:35:37.822Z,0
2018-10-09T02:36:45.866Z,0
2018-10-09T02:37:53.953Z,0
2018-10-09T02:39:02.021Z,0
2018-10-09T02:40:10.096Z,0
2018-10-09T02:41:18.152Z,0
2018-10-09T02:42:26.187Z,0
2018-10-09T02:43:34.272Z,0
2018-10-09T02:44:42.346Z,0
2018-10-09T02:45:50.410Z,0
2018-10-09T02:46:58.469Z,0
2018-10-09T02:48:06.505Z,0
2018-10-09T02:49:14.602Z,0
2018-10-09T02:50:22.661Z,0
2018-10-09T02:51:30.731Z,0
2018-10-09T02:52:38.789Z,0
2018-10-09T02:53:46.840Z,0
2018-10-09T02:54:54.933Z,0
2018-10-09T02:56:02.973Z,0
2018-10-09T02:57:11.051Z,0
2018-10-09T02:58:19.125Z,0
2018-10-09T02:59:27.186Z,0
2018-10-09T03:00:35.244Z,0
2018-10-09T03:01:43.319Z,0
2018-10-09T03:02:51.375Z,0
2018-10-09T03:03:59.416Z,0
2018-10-09T03:05:07.522Z,0
2018-10-09T03:06:15.586Z,0
2018-10-09T03:07:23.646Z,0
2018-10-09T03:08:31.835Z,0
2018-10-09T03:09:39.787Z,0
2018-10-09T03:10:47.840Z,0
2018-10-09T03:11:55.882Z,0
2018-10-09T03:13:03.962Z,0
2018-10-09T03:14:12.039Z,0
2018-10-09T03:15:20.100Z,0
2018-10-09T03:16:28.158Z,0
2018-10-09T03:17:36.219Z,0
2018-10-09T03:18:44.290Z,0
2018-10-09T03:19:52.348Z,0
2018-10-09T03:21:00.427Z,0
2018-10-09T03:22:08.477Z,0
2018-10-09T03:23:16.514Z,0
2018-10-09T03:24:24.608Z,0
2018-10-09T03:25:32.683Z,0
2018-10-09T03:26:40.741Z,0
2018-10-09T03:27:48.829Z,0
2018-10-09T03:28:56.873Z,0
2018-10-09T03:30:04.934Z,0
2018-10-09T03:31:13.004Z,0
2018-10-09T03:32:21.069Z,0
2018-10-09T03:33:29.149Z,0
2018-10-09T03:34:37.185Z,0
2018-10-09T03:35:45.257Z,0
2018-10-09T03:36:53.325Z,0
2018-10-09T03:38:01.389Z,0
2018-10-09T03:39:10.511Z,0
2018-10-09T03:40:17.532Z,0
2018-10-09T03:41:25.588Z,0
2018-10-09T03:42:33.654Z,0
2018-10-09T03:43:41.715Z,0
2018-10-09T03:44:49.778Z,0
2018-10-09T03:45:57.859Z,0
2018-10-09T03:47:05.926Z,0
2018-10-09T03:48:13.985Z,0
2018-10-09T03:49:22.035Z,0
2018-10-09T03:50:30.104Z,0
2018-10-09T03:51:38.173Z,0
2018-10-09T03:52:46.202Z,0
2018-10-09T03:53:54.308Z,0
2018-10-09T03:55:02.383Z,0
2018-10-09T03:56:10.428Z,0
2018-10-09T03:57:18.495Z,0
2018-10-09T03:58:26.524Z,0
2018-10-09T03:59:34.623Z,0
2018-10-09T04:00:42.693Z,0
2018-10-09T04:01:50.751Z,0
2018-10-09T04:02:58.819Z,0
2018-10-09T04:04:06.872Z,0
2018-10-09T04:05:14.959Z,0
2018-10-09T04:06:23.010Z,0
2018-10-09T04:07:31.088Z,0
2018-10-09T04:08:39.144Z,0
2018-10-09T04:09:47.204Z,0
2018-10-09T04:10:55.277Z,0
2018-10-09T04:12:03.335Z,0
2018-10-09T04:13:11.404Z,0
2018-10-09T04:14:19.480Z,0
2018-10-09T04:15:27.545Z,0
2018-10-09T04:16:35.596Z,0
2018-10-09T04:17:43.676Z,0
2018-10-09T04:18:51.735Z,0
2018-10-09T04:19:59.794Z,0
2018-10-09T04:21:07.861Z,0
2018-10-09T04:22:15.905Z,0
2018-10-09T04:23:23.993Z,0
2018-10-09T04:24:32.054Z,0
2018-10-09T04:25:40.125Z,0
2018-10-09T04:26:48.184Z,0
2018-10-09T04:27:56.220Z,0
2018-10-09T04:29:04.311Z,0
2018-10-09T04:30:12.387Z,0
2018-10-09T04:31:20.445Z,0
2018-10-09T04:32:28.518Z,0
2018-10-09T04:33:36.550Z,0
2018-10-09T04:34:44.639Z,0
2018-10-09T04:35:52.703Z,0
2018-10-09T04:37:00.987Z,0
2018-10-09T04:38:08.835Z,0
2018-10-09T04:39:16.881Z,0
2018-10-09T04:40:24.976Z,0
2018-10-09T04:41:33.017Z,0
2018-10-09T04:42:41.099Z,0
2018-10-09T04:43:49.159Z,0
2018-10-09T04:44:57.226Z,0
2018-10-09T04:46:05.290Z,0
2018-10-09T04:47:13.354Z,0
2018-10-09T04:48:21.421Z,0
2018-10-09T04:49:29.488Z,0
2018-10-09T04:50:37.624Z,0
2018-10-09T04:51:45.615Z,0
2018-10-09T04:52:53.721Z,0
2018-10-09T04:54:01.742Z,0
2018-10-09T04:55:09.801Z,0
2018-10-09T04:56:17.868Z,0
2018-10-09T04:57:25.930Z,0
2018-10-09T04:58:34.110Z,0
2018-10-09T04:59:42.069Z,0
2018-10-09T05:00:50.251Z,0
2018-10-09T05:01:58.197Z,0
2018-10-09T05:03:06.231Z,0
2018-10-09T05:04:14.330Z,0
2018-10-09T05:05:22.394Z,0
2018-10-09T05:06:31.085Z,0
2018-10-09T05:07:38.520Z,0
2018-10-09T05:08:46.557Z,0
2018-10-09T05:09:54.664Z,4
2018-10-09T05:11:02.813Z,0
2018-10-09T05:12:10.854Z,4
2018-10-09T05:13:18.840Z,4
2018-10-09T05:14:27.691Z,4
2018-10-09T05:15:34.969Z,4
2018-10-09T05:16:44.082Z,4
2018-10-09T05:17:51.157Z,8
2018-10-09T05:18:59.801Z,8
2018-10-09T05:20:07.240Z,12
2018-10-09T05:21:15.293Z,12
2018-10-09T05:22:23.362Z,16
2018-10-09T05:23:31.443Z,20
2018-10-09T05:24:39.503Z,24
2018-10-09T05:25:47.568Z,28
2018-10-09T05:26:55.634Z,32
2018-10-09T05:28:03.697Z,36
2018-10-09T05:29:11.774Z,40
2018-10-09T05:30:19.822Z,48
2018-10-09T05:31:27.953Z,52
2018-10-09T05:32:35.948Z,60
2018-10-09T05:33:44.027Z,72
2018-10-09T05:34:52.099Z,80
2018-10-09T05:36:00.159Z,88
2018-10-09T05:37:08.228Z,96
2018-10-09T05:38:16.262Z,104
2018-10-09T05:39:24.348Z,108
2018-10-09T05:40:32.419Z,120
2018-10-09T05:41:40.486Z,128
2018-10-09T05:42:48.540Z,140
2018-10-09T05:43:56.588Z,152
2018-10-09T05:45:04.679Z,164
2018-10-09T05:46:12.742Z,180
2018-10-09T05:47:20.807Z,188
2018-10-09T05:48:28.879Z,196
2018-10-09T05:49:36.930Z,212
2018-10-09T05:50:45.003Z,220
2018-10-09T05:51:53.077Z,232
2018-10-09T05:53:01.136Z,252
2018-10-09T05:54:09.230Z,272
2018-10-09T05:55:17.267Z,292
2018-10-09T05:56:25.335Z,308
2018-10-09T05:57:33.390Z,332
2018-10-09T05:58:41.463Z,364
2018-10-09T05:59:49.533Z,400
2018-10-09T06:00:58.379Z,440
2018-10-09T06:02:05.664Z,484
2018-10-09T06:03:13.765Z,524
2018-10-09T06:04:21.793Z,548
2018-10-09T06:05:29.864Z,564
2018-10-09T06:06:37.919Z,572
2018-10-09T06:07:45.969Z,576
2018-10-09T06:08:54.064Z,572
2018-10-09T06:10:02.130Z,564
2018-10-09T06:11:10.185Z,564
2018-10-09T06:12:18.252Z,568
2018-10-09T06:13:26.294Z,548
2018-10-09T06:14:34.376Z,552
2018-10-09T06:15:42.658Z,596
2018-10-09T06:16:50.527Z,612
2018-10-09T06:17:58.576Z,632
2018-10-09T06:19:06.617Z,656
2018-10-09T06:20:14.704Z,692
2018-10-09T06:21:22.771Z,724
2018-10-09T06:22:30.844Z,756
2018-10-09T06:23:38.944Z,816
2018-10-09T06:24:46.962Z,876
2018-10-09T06:25:55.039Z,908
2018-10-09T06:27:03.118Z,888
2018-10-09T06:28:11.310Z,816
2018-10-09T06:29:19.246Z,732
2018-10-09T06:30:27.303Z,744
2018-10-09T06:31:35.364Z,836
2018-10-09T06:32:43.427Z,968
2018-10-09T06:33:51.509Z,1072
2018-10-09T06:34:59.602Z,1116
2018-10-09T06:36:07.636Z,1040
2018-10-09T06:37:15.721Z,1012
2018-10-09T06:38:23.765Z,1004
2018-10-09T06:39:31.837Z,956
2018-10-09T06:40:39.909Z,1104
2018-10-09T06:41:47.963Z,1224
2018-10-09T06:42:56.109Z,1264
2018-10-09T06:44:04.094Z,1296
2018-10-09T06:45:12.159Z,1316
2018-10-09T06:46:20.231Z,1348
2018-10-09T06:47:28.334Z,1392
2018-10-09T06:48:36.330Z,1448
2018-10-09T06:49:44.414Z,1516
2018-10-09T06:50:52.484Z,1568
2018-10-09T06:52:00.554Z,1632
2018-10-09T06:53:08.637Z,1676
2018-10-09T06:54:16.689Z,1720
2018-10-09T06:55:24.749Z,1764
2018-10-09T06:56:32.815Z,1816
2018-10-09T06:57:40.878Z,1852
2018-10-09T06:58:48.956Z,1840
2018-10-09T06:59:57.019Z,1804
2018-10-09T07:01:05.092Z,1776
2018-10-09T07:02:13.150Z,1768
2018-10-09T07:03:21.218Z,1812
2018-10-09T07:04:29.297Z,1888
2018-10-09T07:05:37.345Z,1948
2018-10-09T07:06:45.424Z,2008
2018-10-09T07:07:53.480Z,2060
2018-10-09T07:09:01.543Z,2092
2018-10-09T07:10:09.623Z,2124
2018-10-09T07:11:17.829Z,2192
2018-10-09T07:12:25.744Z,2252
2018-10-09T07:13:33.802Z,2316
2018-10-09T07:14:41.878Z,2372
2018-10-09T07:15:49.943Z,2404
2018-10-09T07:16:58.067Z,2424
2018-10-09T07:18:06.051Z,2456
2018-10-09T07:19:14.153Z,2488
2018-10-09T07:20:22.213Z,2508
2018-10-09T07:21:30.278Z,2544
2018-10-09T07:22:38.342Z,2608
2018-10-09T07:23:46.385Z,2656
2018-10-09T07:24:54.491Z,2728
2018-10-09T07:26:02.554Z,2836
2018-10-09T07:27:10.609Z,2924
2018-10-09T07:28:18.667Z,2960
2018-10-09T07:29:26.726Z,2940
2018-10-09T07:30:34.808Z,2896
2018-10-09T07:31:42.864Z,2860
2018-10-09T07:32:50.943Z,2844
2018-10-09T07:33:59.002Z,2860
2018-10-09T07:35:07.070Z,2872
2018-10-09T07:36:15.128Z,2844
2018-10-09T07:37:23.205Z,2824
2018-10-09T07:38:31.276Z,2820
2018-10-09T07:39:39.356Z,2816
2018-10-09T07:40:47.405Z,2800
2018-10-09T07:41:55.477Z,2800
2018-10-09T07:43:03.544Z,2796
2018-10-09T07:44:11.610Z,2796
2018-10-09T07:45:19.663Z,2736
2018-10-09T07:46:27.751Z,2592
2018-10-09T07:47:35.803Z,2572
2018-10-09T07:48:43.905Z,2756
2018-10-09T07:49:51.943Z,2848
2018-10-09T07:51:00.005Z,2944
2018-10-09T07:52:08.071Z,2956
2018-10-09T07:53:16.883Z,2704
2018-10-09T07:54:24.197Z,3048
2018-10-09T07:55:32.274Z,3072
2018-10-09T07:56:40.331Z,3080
2018-10-09T07:57:48.414Z,3096
2018-10-09T07:58:56.446Z,3084
2018-10-09T08:00:04.544Z,2992
2018-10-09T08:01:12.610Z,3044
2018-10-09T08:02:20.671Z,3248
2018-10-09T08:03:28.731Z,3424
2018-10-09T08:04:36.795Z,3552
2018-10-09T08:05:44.877Z,3612
2018-10-09T08:06:52.975Z,3720
2018-10-09T08:08:01.012Z,3584
2018-10-09T08:09:09.071Z,3520
2018-10-09T08:10:17.153Z,3368
2018-10-09T08:11:25.242Z,3444
2018-10-09T08:12:33.273Z,3824
2018-10-09T08:13:41.326Z,4088
2018-10-09T08:14:49.394Z,3948
2018-10-09T08:15:57.761Z,4224
2018-10-09T08:17:05.546Z,4092
2018-10-09T08:18:13.604Z,4248
2018-10-09T08:19:21.683Z,4728
2018-10-09T08:20:29.774Z,4968
2018-10-09T08:21:37.801Z,5068
2018-10-09T08:22:45.858Z,5012
2018-10-09T08:23:53.948Z,4752
2018-10-09T08:25:02.041Z,4700
2018-10-09T08:26:10.072Z,5056
2018-10-09T08:27:18.144Z,5392
2018-10-09T08:28:26.175Z,5368
2018-10-09T08:29:34.266Z,5304
2018-10-09T08:30:42.348Z,5260
2018-10-09T08:31:50.444Z,5044
2018-10-09T08:32:58.468Z,5048
2018-10-09T08:34:06.516Z,5000
2018-10-09T08:35:14.630Z,5088
2018-10-09T08:36:22.676Z,5036
2018-10-09T08:37:30.750Z,5112
2018-10-09T08:38:38.814Z,5196
2018-10-09T08:39:46.881Z,5116
2018-10-09T08:40:54.946Z,5060
2018-10-09T08:42:03.023Z,4876
2018-10-09T08:43:11.074Z,4800
2018-10-09T08:44:19.150Z,4324
2018-10-09T08:45:27.217Z,4080
2018-10-09T08:46:35.292Z,3616
2018-10-09T08:47:43.346Z,3500
2018-10-09T08:48:51.418Z,3524
2018-10-09T08:49:59.481Z,4060
2018-10-09T08:51:07.553Z,4336
2018-10-09T08:52:15.619Z,4948
2018-10-09T08:53:23.682Z,5272
2018-10-09T08:54:31.760Z,5624
2018-10-09T08:55:39.828Z,6080
2018-10-09T08:56:47.883Z,6228
2018-10-09T08:57:55.951Z,6176
2018-10-09T08:59:04.045Z,6068
2018-10-09T09:00:12.093Z,6032
2018-10-09T09:01:20.165Z,6120
2018-10-09T09:02:28.224Z,6112
2018-10-09T09:03:36.342Z,6136
2018-10-09T09:04:44.363Z,6336
2018-10-09T09:05:52.424Z,6488
2018-10-09T09:07:00.490Z,6660
2018-10-09T09:08:08.565Z,6692
2018-10-09T09:09:16.615Z,6528
2018-10-09T09:10:24.700Z,6420
2018-10-09T09:11:32.773Z,6384
2018-10-09T09:12:40.846Z,6192
2018-10-09T09:13:48.928Z,6152
2018-10-09T09:14:56.960Z,6008
2018-10-09T09:16:05.044Z,6844
2018-10-09T09:17:13.108Z,6952
2018-10-09T09:18:21.166Z,7156
2018-10-09T09:19:29.243Z,7084
2018-10-09T09:20:37.369Z,5968
2018-10-09T09:21:45.369Z,6016
2018-10-09T09:22:53.447Z,7548
2018-10-09T09:24:01.522Z,7564
2018-10-09T09:25:09.583Z,7268
2018-10-09T09:26:17.690Z,6852
2018-10-09T09:27:25.744Z,6712
2018-10-09T09:28:33.793Z,6768
2018-10-09T09:29:41.857Z,7048
2018-10-09T09:30:49.928Z,7472
2018-10-09T09:31:57.991Z,7292
2018-10-09T09:33:06.085Z,8148
2018-10-09T09:34:14.131Z,8492
2018-10-09T09:35:22.203Z,8544
2018-10-09T09:36:30.260Z,8744
2018-10-09T09:37:38.335Z,8884
2018-10-09T09:38:46.466Z,8964
2018-10-09T09:39:54.471Z,8776
2018-10-09T09:41:02.550Z,8644
2018-10-09T09:42:10.611Z,8560
2018-10-09T09:43:18.666Z,8728
2018-10-09T09:44:26.718Z,9376
2018-10-09T09:45:34.830Z,9460
2018-10-09T09:46:42.874Z,9872
2018-10-09T09:47:50.947Z,9880
2018-10-09T09:48:59.015Z,9624
2018-10-09T09:50:07.088Z,9232
2018-10-09T09:51:15.150Z,9200
2018-10-09T09:52:23.237Z,9004
2018-10-09T09:53:31.298Z,9096
2018-10-09T09:54:39.364Z,9300
2018-10-09T09:55:47.428Z,9108
2018-10-09T09:56:55.495Z,9636
2018-10-09T09:58:03.596Z,10344
2018-10-09T09:59:11.786Z,10668
2018-10-09T10:00:19.691Z,10428
2018-10-09T10:01:27.770Z,10192
2018-10-09T10:02:35.827Z,10080
2018-10-09T10:03:44.008Z,9992
2018-10-09T10:04:51.978Z,9500
2018-10-09T10:06:00.051Z,8928
2018-10-09T10:07:08.103Z,8548
2018-10-09T10:08:16.153Z,9792
2018-10-09T10:09:24.393Z,10232
2018-10-09T10:10:32.341Z,10784
2018-10-09T10:11:40.389Z,10000
2018-10-09T10:12:48.462Z,10492
2018-10-09T10:13:56.513Z,10764
2018-10-09T10:15:04.606Z,11472
2018-10-09T10:16:12.677Z,11816
2018-10-09T10:17:20.747Z,11820
2018-10-09T10:18:28.801Z,11452
2018-10-09T10:19:36.877Z,11496
2018-10-09T10:20:47.565Z,10944
2018-10-09T10:21:56.220Z,11144
2018-10-09T10:35:43.194Z,11568
2018-10-09T10:36:51.143Z,12020
2018-10-09T10:37:59.139Z,12236
2018-10-09T10:39:07.210Z,12748
2018-10-09T10:40:15.453Z,12900
2018-10-09T10:42:31.400Z,12168
2018-10-09T10:43:39.468Z,11940
2018-10-09T10:44:47.537Z,12164
2018-10-09T10:45:55.609Z,12048
2018-10-09T10:47:03.675Z,12408
2018-10-09T10:48:11.778Z,11020
2018-10-09T10:49:19.850Z,10520
2018-10-09T10:50:27.894Z,10608
2018-10-09T10:51:35.936Z,8692
2018-10-09T10:52:44.052Z,8544
2018-10-09T10:53:52.102Z,7736
2018-10-09T10:55:00.204Z,7884
2018-10-09T10:56:08.234Z,8748
2018-10-09T10:57:16.279Z,9528
2018-10-09T10:58:24.367Z,10384
2018-10-09T10:59:32.462Z,11444
2018-10-09T11:00:40.527Z,11376
2018-10-09T11:01:48.678Z,11628
2018-10-09T11:02:56.632Z,11808
2018-10-09T11:04:04.752Z,11524
2018-10-09T11:05:12.803Z,11032
2018-10-09T11:06:20.869Z,10736
2018-10-09T11:07:28.941Z,10888
2018-10-09T11:08:37.051Z,11372
2018-10-09T11:09:45.076Z,11408
2018-10-09T11:10:53.187Z,11892
2018-10-09T11:12:01.218Z,11956
2018-10-09T11:13:09.290Z,11688
2018-10-09T11:14:17.361Z,10812
2018-10-09T11:15:25.429Z,9820
2018-10-09T11:16:33.520Z,9304
2018-10-09T11:17:41.564Z,8880
2018-10-09T11:18:49.648Z,7972
2018-10-09T11:19:57.730Z,7848
2018-10-09T11:21:05.812Z,7760
2018-10-09T11:22:13.855Z,6948
2018-10-09T11:23:21.926Z,5364
2018-10-09T11:24:30.018Z,4972
2018-10-09T11:25:38.070Z,5092
2018-10-09T11:26:46.120Z,5412
2018-10-09T11:27:54.217Z,6180
2018-10-09T11:29:02.289Z,6224
2018-10-09T11:30:10.366Z,6136
2018-10-09T11:31:18.442Z,6896
2018-10-09T11:32:26.550Z,7172
2018-10-09T11:33:34.571Z,7036
2018-10-09T11:34:42.643Z,7728
2018-10-09T11:35:50.706Z,7852
2018-10-09T11:36:58.797Z,7512
2018-10-09T11:38:06.845Z,7044
2018-10-09T11:39:14.917Z,6560
2018-10-09T11:40:23.008Z,6072
2018-10-09T11:41:31.069Z,6376
2018-10-09T11:42:39.151Z,6288
2018-10-09T11:43:47.208Z,5380
2018-10-09T11:44:55.283Z,4368
2018-10-09T11:46:03.354Z,3952
2018-10-09T11:47:11.416Z,4228
2018-10-09T11:48:19.490Z,4224
2018-10-09T11:49:27.560Z,3792
2018-10-09T11:50:35.638Z,3544
2018-10-09T11:51:43.699Z,3448
2018-10-09T11:52:51.763Z,3300
2018-10-09T11:53:59.850Z,3232
2018-10-09T11:55:07.917Z,2932
2018-10-09T11:56:15.964Z,3080
2018-10-09T11:57:24.050Z,3444
2018-10-09T11:58:32.128Z,3596
2018-10-09T11:59:40.209Z,3516
2018-10-09T12:00:48.279Z,3444
2018-10-09T12:01:56.310Z,3692
2018-10-09T12:03:04.396Z,3484
2018-10-09T12:04:12.479Z,3512
2018-10-09T12:05:20.539Z,3256
2018-10-09T12:06:28.603Z,3032
2018-10-09T12:07:36.653Z,2792
2018-10-09T12:08:44.746Z,3064
2018-10-09T12:09:52.826Z,3012
2018-10-09T12:11:00.880Z,2932
2018-10-09T12:12:08.964Z,3040
2018-10-09T12:13:17.035Z,3028
2018-10-09T12:14:25.090Z,3012
2018-10-09T12:15:33.155Z,2928
2018-10-09T12:16:41.245Z,2924
2018-10-09T12:17:49.303Z,2840
2018-10-09T12:18:57.365Z,2960
2018-10-09T12:20:05.442Z,2968
2018-10-09T12:21:13.515Z,2956
2018-10-09T12:22:21.567Z,2944
2018-10-09T12:23:29.651Z,2940
2018-10-09T12:24:37.701Z,2932
2018-10-09T12:25:45.764Z,2912
2018-10-09T12:26:53.885Z,2904
2018-10-09T12:28:01.913Z,2880
2018-10-09T12:29:09.993Z,2860
2018-10-09T12:30:18.058Z,2864
2018-10-09T12:31:26.097Z,2872
2018-10-09T12:32:34.199Z,2904
2018-10-09T12:33:42.269Z,2908
2018-10-09T12:34:50.329Z,2900
2018-10-09T12:35:58.393Z,2884
2018-10-09T12:37:06.439Z,2864
2018-10-09T12:38:14.580Z,2840
2018-10-09T12:39:22.616Z,2824
2018-10-09T12:40:30.676Z,2816
2018-10-09T12:41:38.749Z,2808
2018-10-09T12:42:46.793Z,2792
2018-10-09T12:43:54.916Z,2792
2018-10-09T12:45:03.648Z,2808
2018-10-09T12:46:11.016Z,2808
2018-10-09T12:47:19.090Z,2808
2018-10-09T12:48:27.151Z,2816
2018-10-09T12:49:35.224Z,2816
2018-10-09T12:50:43.290Z,2812
2018-10-09T12:51:51.366Z,2800
2018-10-09T12:52:59.455Z,2800
2018-10-09T12:54:07.487Z,2832
2018-10-09T12:55:15.573Z,2844
2018-10-09T12:56:23.633Z,2848
2018-10-09T12:57:31.705Z,2836
2018-10-09T12:58:39.784Z,2840
2018-10-09T12:59:47.839Z,2852
2018-10-09T13:00:55.889Z,2844
2018-10-09T13:02:03.978Z,2844
2018-10-09T13:03:12.124Z,2856
2018-10-09T13:04:20.104Z,2864
2018-10-09T13:05:28.178Z,2872
2018-10-09T13:06:36.219Z,2872
2018-10-09T13:07:44.308Z,2856
2018-10-09T13:08:52.390Z,2860
2018-10-09T13:10:00.430Z,2852
2018-10-09T13:11:08.531Z,2864
2018-10-09T13:12:16.570Z,2880
2018-10-09T13:13:24.664Z,2888
2018-10-09T13:14:32.735Z,2888
2018-10-09T13:15:40.791Z,2908
2018-10-09T13:16:48.861Z,2928
2018-10-09T13:17:56.940Z,2932
2018-10-09T13:19:05.013Z,2916
2018-10-09T13:20:13.075Z,2916
2018-10-09T13:21:21.276Z,2936
2018-10-09T13:22:29.666Z,2960
2018-10-09T13:23:37.277Z,2956
2018-10-09T13:24:45.369Z,2972
2018-10-09T13:25:53.430Z,2952
2018-10-09T13:27:01.552Z,2944
2018-10-09T13:28:09.585Z,2948
2018-10-09T13:29:17.673Z,2956
2018-10-09T13:30:25.686Z,2956
2018-10-09T13:31:33.768Z,2964
2018-10-09T13:32:41.842Z,2972
2018-10-09T13:33:49.923Z,2980
2018-10-09T13:34:57.963Z,2988
2018-10-09T13:36:06.008Z,3028
2018-10-09T13:37:14.110Z,3064
2018-10-09T13:38:22.862Z,3084
2018-10-09T13:39:30.303Z,3092
2018-10-09T13:40:38.326Z,3120
2018-10-09T13:41:46.360Z,3132
2018-10-09T13:42:54.447Z,3128
2018-10-09T13:44:02.581Z,3148
2018-10-09T13:45:10.587Z,3168
2018-10-09T13:46:18.629Z,3168
2018-10-09T13:47:26.880Z,3164
2018-10-09T13:48:34.807Z,3156
2018-10-09T13:49:42.869Z,3132
2018-10-09T13:50:50.962Z,3108
2018-10-09T13:51:58.997Z,3084
2018-10-09T13:53:07.069Z,3072
2018-10-09T13:54:15.198Z,3076
2018-10-09T13:55:23.431Z,3072
2018-10-09T13:56:31.274Z,3076
2018-10-09T13:57:39.354Z,3088
2018-10-09T13:58:47.417Z,3100
2018-10-09T13:59:55.483Z,3156
2018-10-09T14:01:03.551Z,3188
2018-10-09T14:02:11.614Z,3212
2018-10-09T14:03:19.687Z,3228
2018-10-09T14:04:27.764Z,3228
2018-10-09T14:05:35.824Z,3208
2018-10-09T14:06:43.896Z,3164
2018-10-09T14:07:51.971Z,3080
2018-10-09T14:09:00.037Z,3032
2018-10-09T14:10:08.147Z,3044
2018-10-09T14:11:16.148Z,2960
2018-10-09T14:12:24.243Z,2888
2018-10-09T14:13:32.304Z,2820
2018-10-09T14:14:40.395Z,2828
2018-10-09T14:15:48.451Z,2816
2018-10-09T14:16:56.478Z,2864
2018-10-09T14:18:04.578Z,2840
2018-10-09T14:19:12.652Z,2780
2018-10-09T14:20:20.716Z,2732
2018-10-09T14:21:28.767Z,2888
2018-10-09T14:22:36.946Z,2952
2018-10-09T14:23:44.935Z,3008
2018-10-09T14:24:52.983Z,3036
2018-10-09T14:26:01.071Z,3080
2018-10-09T14:27:09.143Z,3144
2018-10-09T14:28:17.203Z,3176
2018-10-09T14:29:25.315Z,3136
2018-10-09T14:30:33.343Z,3020
2018-10-09T14:31:41.410Z,2968
2018-10-09T14:32:49.474Z,2972
2018-10-09T14:33:57.537Z,2920
2018-10-09T14:35:05.719Z,2844
2018-10-09T14:36:13.682Z,2776
2018-10-09T14:37:21.745Z,2712
2018-10-09T14:38:29.806Z,2672
2018-10-09T14:39:37.886Z,2604
2018-10-09T14:40:45.946Z,2544
2018-10-09T14:41:54.028Z,2464
2018-10-09T14:43:02.090Z,2384
2018-10-09T14:44:10.251Z,2324
2018-10-09T14:45:18.229Z,2256
2018-10-09T14:46:26.278Z,2264
2018-10-09T14:47:34.369Z,2376
2018-10-09T14:48:42.429Z,2604
2018-10-09T14:49:50.504Z,2644
2018-10-09T14:50:58.572Z,2656
2018-10-09T14:52:06.616Z,2712
2018-10-09T14:53:14.707Z,2716
2018-10-09T14:54:22.780Z,2684
2018-10-09T14:55:30.856Z,2668
2018-10-09T14:56:38.909Z,2676
2018-10-09T14:57:46.978Z,2688
2018-10-09T14:58:55.061Z,2720
2018-10-09T15:00:03.119Z,2752
2018-10-09T15:01:11.274Z,2764
2018-10-09T15:02:19.252Z,2768
2018-10-09T15:03:27.332Z,2756
2018-10-09T15:04:35.391Z,2740
2018-10-09T15:05:43.462Z,2712
2018-10-09T15:06:51.528Z,2672
2018-10-09T15:07:59.600Z,2656
2018-10-09T15:09:07.668Z,2624
2018-10-09T15:10:15.739Z,2552
2018-10-09T15:11:23.800Z,2460
2018-10-09T15:12:31.867Z,2428
2018-10-09T15:13:39.935Z,2448
2018-10-09T15:14:48.005Z,2420
2018-10-09T15:15:56.042Z,2384
2018-10-09T15:17:04.197Z,2364
2018-10-09T15:18:12.213Z,2296
2018-10-09T15:19:20.277Z,2236
2018-10-09T15:20:28.343Z,2200
2018-10-09T15:21:36.394Z,2176
2018-10-09T15:22:44.475Z,2144
2018-10-09T15:23:52.560Z,2092
2018-10-09T15:25:00.618Z,2048
2018-10-09T15:26:08.687Z,2016
2018-10-09T15:27:16.731Z,1972
2018-10-09T15:28:24.834Z,1916
2018-10-09T15:29:32.897Z,1876
2018-10-09T15:30:40.959Z,1852
2018-10-09T15:31:49.019Z,1836
2018-10-09T15:32:57.090Z,1832
2018-10-09T15:34:05.156Z,1832
2018-10-09T15:35:13.286Z,1836
2018-10-09T15:36:21.311Z,1844
2018-10-09T15:37:29.358Z,1836
2018-10-09T15:38:37.439Z,1816
2018-10-09T15:39:45.499Z,1796
2018-10-09T15:40:53.572Z,1792
2018-10-09T15:42:01.640Z,1804
2018-10-09T15:43:09.705Z,1816
2018-10-09T15:44:17.768Z,1824
2018-10-09T15:45:25.825Z,1820
2018-10-09T15:46:33.937Z,1804
2018-10-09T15:47:42.010Z,1776
2018-10-09T15:48:50.050Z,1744
2018-10-09T15:49:58.126Z,1720
2018-10-09T15:51:06.156Z,1708
2018-10-09T15:52:14.238Z,1704